Flight Track Log - Related Links

Times and Time Zones

All times are in EDT time to prevent confusion due to time zone crossing. See the AWE1940 flight status page for this flight to view local times or setup timezone preferences in your user account.

Time Position Orientation Groundspeed Altitude Reporting Facility
EDT Latitude Longitude Course Direction KTS MPH feet Rate Location/Type
Sat 10:21:42 PM 35.1972 -80.9381 232° Southwest 147 169 1,700  Level Atlanta Center
Sat 10:23:07 PM 35.1669 -80.9847 232° Southwest 249 287 4,600 2,373 Climbing Atlanta Center
Sat 10:23:56 PM 35.2242 -81.0208 333° Northwest 291 335 7,000 3,313 Climbing Atlanta Center
Sat 10:24:14 PM 35.2447 -81.0075 28° Northeast 300 345 8,300 3,100 Climbing Atlanta Center
Sat 10:24:56 PM 35.3028 -80.9950 10° North 286 329 10,100 2,176 Climbing Atlanta Center
Sat 10:25:56 PM 35.3878 -80.9717 13° North 335 386 12,000 2,700 Climbing Atlanta Center
Sat 10:26:56 PM 35.4833 -80.9475 12° North 343 395 15,500 3,000 Climbing Atlanta Center
Sat 10:27:56 PM 35.5783 -80.9108 17° North 348 400 18,000 2,500 Climbing Atlanta Center
Sat 10:28:56 PM 35.6750 -80.8636 22° Northeast 366 421 20,500 2,500 Climbing Atlanta Center
Sat 10:29:56 PM 35.7739 -80.8111 23° Northeast 373 429 23,000 2,200 Climbing Atlanta Center
Sat 10:30:56 PM 35.8767 -80.7583 23° Northeast 386 444 24,900 1,800 Climbing Atlanta Center
Sat 10:31:56 PM 35.9858 -80.7028 22° Northeast 399 459 26,600 1,800 Climbing Atlanta Center
Sat 10:32:56 PM 36.0947 -80.6467 23° Northeast 417 480 28,500 1,450 Climbing Atlanta Center
Sat 10:33:56 PM 36.2081 -80.5931 21° North 430 495 29,500 1,300 Climbing Atlanta Center
Sat 10:34:56 PM 36.3211 -80.5317 24° Northeast 435 501 31,100 1,750 Climbing Atlanta Center
Sat 10:35:56 PM 36.4361 -80.4725 22° Northeast 440 506 33,000 1,200 Climbing Atlanta Center
Sat 10:36:56 PM 36.5492 -80.4158 22° Northeast 440 506 33,500 531 Climbing Atlanta Center
Sat 10:39:08 PM 36.7833 -80.2964 22° Northeast 437 503 34,700 471 Climbing Washington Center
Sat 10:40:07 PM 36.8922 -80.2381 23° Northeast 432 497 35,000 149 Climbing Washington Center
Sat 10:41:09 PM 37.0050 -80.1772 23° Northeast 427 491 35,000  Level Washington Center
Sat 10:42:09 PM 37.1156 -80.1214 22° Northeast 427 491 35,000  Level Washington Center
Sat 10:43:07 PM 37.2392 -80.0581 22° Northeast 427 491 35,000  Level Washington Center
Sat 10:44:09 PM 37.3497 -80.0019 22° Northeast 422 486 35,000  Level Washington Center
Sat 10:45:08 PM 37.4603 -79.9403 24° Northeast 422 486 35,000  Level Washington Center
Sat 10:46:08 PM 37.5731 -79.8839 22° Northeast 422 486 35,000  Level Washington Center
Sat 10:47:07 PM 37.6689 -79.8264 25° Northeast 422 486 35,000  Level Washington Center
Sat 10:48:08 PM 37.7919 -79.7650 22° Northeast 422 486 35,000  Level Washington Center
Sat 10:49:09 PM 37.8897 -79.7125 23° Northeast 422 486 35,000  Level Washington Center
Sat 10:50:07 PM 38.0003 -79.6525 23° Northeast 422 486 35,000  Level Washington Center
Sat 10:51:08 PM 38.1108 -79.5925 23° Northeast 422 486 35,000  Level Washington Center
Sat 10:52:07 PM 38.2192 -79.5325 24° Northeast 422 486 35,000  Level Washington Center
Sat 10:53:07 PM 38.3422 -79.4647 23° Northeast 422 486 35,000  Level Washington Center
Sat 10:54:07 PM 38.4506 -79.4067 23° Northeast 422 486 35,000  Level Washington Center
Sat 10:55:08 PM 38.5586 -79.3486 23° Northeast 422 486 35,000  Level Washington Center
Sat 10:56:08 PM 38.6669 -79.2903 23° Northeast 422 486 35,000  Level Washington Center
Sat 10:57:07 PM 38.7664 -79.2339 24° Northeast 422 486 35,000  Level Washington Center
Sat 10:58:08 PM 38.8706 -79.1725 25° Northeast 422 486 35,000  Level Washington Center
Sat 10:59:44 PM 39.0647 -79.0647 23° Northeast 439 505 35,000  Level Cleveland Center
Sat 11:00:44 PM 39.1764 -79.0008 24° Northeast 434 499 35,000  Level Cleveland Center
Sat 11:01:44 PM 39.2881 -78.9392 23° Northeast 434 499 35,000  Level Cleveland Center
Sat 11:02:44 PM 39.3853 -78.8831 24° Northeast 434 499 35,000  Level Cleveland Center
Sat 11:03:44 PM 39.4950 -78.8211 24° Northeast 434 499 35,000  Level Cleveland Center
Sat 11:04:44 PM 39.6003 -78.7592 24° Northeast 424 488 35,000  Level Cleveland Center
Sat 11:05:44 PM 39.7033 -78.6997 24° Northeast 414 476 35,000  Level Cleveland Center
Sat 11:06:44 PM 39.8150 -78.6344 24° Northeast 409 471 35,000  Level Cleveland Center
Sat 11:07:44 PM 39.9161 -78.5747 24° Northeast 397 457 35,000  Level Cleveland Center
Sat 11:08:44 PM 40.0192 -78.5172 23° Northeast 397 457 35,000  Level Cleveland Center
Sat 11:09:44 PM 40.1244 -78.4569 24° Northeast 397 457 35,000  Level Cleveland Center
Sat 11:10:44 PM 40.2275 -78.3967 24° Northeast 397 457 35,000  Level Cleveland Center
Sat 11:11:44 PM 40.3328 -78.3361 24° Northeast 397 457 35,000  Level Cleveland Center
Sat 11:12:44 PM 40.4358 -78.2753 24° Northeast 397 457 35,000  Level Cleveland Center
Sat 11:13:40 PM 40.5308 -78.2208 24° Northeast 411 473 35,000  Level New York Center
Sat 11:14:39 PM 40.6328 -78.1581 25° Northeast 411 473 35,000  Level New York Center
Sat 11:15:39 PM 40.7389 -78.0981 23° Northeast 411 473 35,000  Level New York Center
Sat 11:16:40 PM 40.8425 -78.0381 24° Northeast 411 473 35,000  Level New York Center
Sat 11:17:39 PM 40.9389 -77.9603 31° Northeast 411 473 35,000  Level New York Center
Sat 11:18:40 PM 41.0192 -77.8422 48° Northeast 404 465 35,000  Level New York Center
Sat 11:19:41 PM 41.0964 -77.7317 47° Northeast 409 471 35,000 -350 Level New York Center
Sat 11:20:40 PM 41.1764 -77.6131 48° Northeast 415 478 34,300 -857 Descending New York Center
Sat 11:21:40 PM 41.2536 -77.4994 48° Northeast 420 483 33,300 -942 Descending New York Center
Sat 11:22:41 PM 41.3331 -77.3831 48° Northeast 420 483 32,400 -1,008 Descending New York Center
Sat 11:23:39 PM 41.4056 -77.2767 48° Northeast 420 483 31,300 -1,017 Descending New York Center
Sat 11:24:39 PM 41.4917 -77.1492 48° Northeast 433 498 30,400 -942 Descending New York Center
Sat 11:25:40 PM 41.5733 -77.0239 49° Northeast 445 512 29,400 -700 Descending New York Center
Sat 11:26:39 PM 41.6475 -76.8781 56° Northeast 457 526 29,000 -756 Descending New York Center
Sat 11:27:39 PM 41.7014 -76.7219 65° Northeast 457 526 27,900 -1,000 Descending New York Center
Sat 11:28:39 PM 41.7536 -76.5903 62° Northeast 457 526 27,000 -950 Descending New York Center
Sat 11:29:39 PM 41.8136 -76.4286 63° Northeast 452 520 26,000 -1,000 Descending New York Center
Sat 11:30:39 PM 41.8733 -76.2639 64° Northeast 446 513 25,000 -517 Descending New York Center
Sat 11:33:31 PM 42.0306 -75.8419 63° Northeast 456 525 24,000 -259 Descending Boston Center
Sat 11:34:31 PM 42.0828 -75.6936 65° Northeast 451 519 24,000  Level Boston Center
Sat 11:35:31 PM 42.1436 -75.5344 63° Northeast 445 512 24,000  Level Boston Center
Sat 11:36:31 PM 42.1931 -75.3939 65° Northeast 439 505 24,000 -400 Level Boston Center
Sat 11:37:31 PM 42.2469 -75.2419 64° Northeast 439 505 23,200 -950 Descending Boston Center
Sat 11:38:31 PM 42.3050 -75.0819 64° Northeast 433 498 22,100 -1,850 Descending Boston Center
Sat 11:39:31 PM 42.3542 -74.9406 65° Northeast 428 493 19,500 -2,600 Descending Boston Center
Sat 11:40:31 PM 42.4031 -74.8019 64° Northeast 418 481 16,900 -2,605 Descending Boston Center
Sat 11:40:47 PM 42.4142 -74.7658 67° East 399 459 16,200 -3,200 Descending Boston Center
Sat 11:41:31 PM 42.4431 -74.6769 66° East 406 467 13,700 -3,364 Descending Boston Center
Sat 11:41:53 PM 42.4650 -74.6214 62° Northeast 395 455 12,500 -2,600 Descending Boston Center
Sat 11:42:31 PM 42.4958 -74.5322 65° Northeast 387 445 11,100 -2,164 Descending Boston Center
Sat 11:42:54 PM 42.5156 -74.4794 63° Northeast 379 436 10,300 -1,200 Descending Boston Center
Sat 11:43:31 PM 42.5331 -74.4208 68° East 364 419 9,900 -689 Descending Boston Center
Sat 11:43:55 PM 42.5550 -74.3708 59° Northeast 317 365 9,600 -1,100 Descending Boston Center
Sat 11:44:31 PM 42.5747 -74.3067 67° East 311 358 8,800 -1,300 Descending Boston Center
Sat 11:44:55 PM 42.5878 -74.2703 64° Northeast 276 318 8,300 -1,400 Descending Boston Center
Sat 11:45:31 PM 42.6031 -74.2228 66° East 286 329 7,400 -1,672 Descending Boston Center
Sat 11:45:56 PM 42.6206 -74.1753 63° Northeast 271 312 6,600 -2,100 Descending Boston Center
Sat 11:46:31 PM 42.6381 -74.1194 67° East 267 307 5,300 -2,066 Descending Boston Center
Sat 11:46:57 PM 42.6531 -74.0858 59° Northeast 266 306 4,500 -1,300 Descending Boston Center
Sat 11:47:31 PM 42.6706 -74.0439 60° Northeast 262 302 4,000 -1,100 Descending Boston Center
Sat 11:47:57 PM 42.7042 -74.0194 28° Northeast 259 298 3,400 -1,000 Descending Boston Center
Sat 11:48:31 PM 42.7336 -73.9975 29° Northeast 245 282 3,000 -393 Descending Boston Center
Sat 11:48:58 PM 42.7631 -73.9758 28° Northeast 236 272 3,000  Level Boston Center
Sat 11:49:31 PM 42.7906 -73.9536 31° Northeast 235 270 3,000  Level Boston Center
Sat 11:49:59 PM 42.8219 -73.9347 24° Northeast 231 266 3,000 -200 Level Boston Center
Sat 11:50:31 PM 42.8494 -73.8986 44° Northeast 235 270 2,800 -900 Descending Boston Center
Sat 11:50:59 PM 42.8519 -73.8703 83° East 196 226 2,100 -1,500 Descending Boston Center

Login

Don't have an account? Register now (free) for customized features, flight alerts, and more!